sensor_id;sensor_type;location;lat;lon;timestamp;P1;durP1;ratioP1;P2;durP2;ratioP2
20832;SDS011;56075;51.264;7.150;2022-10-24T00:02:15;6.13;;;2.38;;
20832;SDS011;56075;51.264;7.150;2022-10-24T00:04:46;8.32;;;2.13;;
20832;SDS011;56075;51.264;7.150;2022-10-24T00:07:17;9.80;;;1.88;;
20832;SDS011;56075;51.264;7.150;2022-10-24T00:09:48;11.05;;;2.20;;
20832;SDS011;56075;51.264;7.150;2022-10-24T00:12:19;7.93;;;1.77;;
20832;SDS011;56075;51.264;7.150;2022-10-24T00:14:51;8.55;;;2.05;;
20832;SDS011;56075;51.264;7.150;2022-10-24T00:17:22;9.40;;;1.77;;
20832;SDS011;56075;51.264;7.150;2022-10-24T00:19:53;11.10;;;2.17;;
20832;SDS011;56075;51.264;7.150;2022-10-24T00:22:24;13.20;;;1.90;;
20832;SDS011;56075;51.264;7.150;2022-10-24T00:24:56;9.88;;;1.95;;
20832;SDS011;56075;51.264;7.150;2022-10-24T00:27:27;10.30;;;2.35;;
20832;SDS011;56075;51.264;7.150;2022-10-24T00:29:59;7.50;;;2.10;;
20832;SDS011;56075;51.264;7.150;2022-10-24T00:32:30;8.27;;;2.10;;
20832;SDS011;56075;51.264;7.150;2022-10-24T00:35:01;7.72;;;1.98;;
20832;SDS011;56075;51.264;7.150;2022-10-24T00:37:33;8.82;;;2.00;;
20832;SDS011;56075;51.264;7.150;2022-10-24T00:40:05;8.50;;;2.08;;
20832;SDS011;56075;51.264;7.150;2022-10-24T00:42:36;8.43;;;2.22;;
20832;SDS011;56075;51.264;7.150;2022-10-24T00:48:11;6.05;;;1.95;;
20832;SDS011;56075;51.264;7.150;2022-10-24T00:50:43;8.93;;;2.10;;
20832;SDS011;56075;51.264;7.150;2022-10-24T00:53:16;4.78;;;1.73;;
20832;SDS011;56075;51.264;7.150;2022-10-24T00:55:49;6.50;;;1.60;;
20832;SDS011;56075;51.264;7.150;2022-10-24T00:58:25;4.25;;;1.58;;
20832;SDS011;56075;51.264;7.150;2022-10-24T01:00:59;5.60;;;1.40;;
20832;SDS011;56075;51.264;7.150;2022-10-24T01:03:30;7.22;;;1.63;;
20832;SDS011;56075;51.264;7.150;2022-10-24T01:06:05;5.35;;;1.40;;
20832;SDS011;56075;51.264;7.150;2022-10-24T01:09:14;5.82;;;1.52;;
20832;SDS011;56075;51.264;7.150;2022-10-24T01:12:18;3.67;;;1.52;;
20832;SDS011;56075;51.264;7.150;2022-10-24T01:17:25;6.20;;;1.52;;
20832;SDS011;56075;51.264;7.150;2022-10-24T01:20:29;7.05;;;1.83;;
20832;SDS011;56075;51.264;7.150;2022-10-24T01:28:39;11.38;;;2.08;;
20832;SDS011;56075;51.264;7.150;2022-10-24T01:31:44;8.60;;;1.80;;
20832;SDS011;56075;51.264;7.150;2022-10-24T01:37:41;5.95;;;1.85;;
20832;SDS011;56075;51.264;7.150;2022-10-24T01:40:31;7.38;;;1.67;;
20832;SDS011;56075;51.264;7.150;2022-10-24T01:43:13;11.25;;;1.73;;
20832;SDS011;56075;51.264;7.150;2022-10-24T01:45:47;8.27;;;1.60;;
20832;SDS011;56075;51.264;7.150;2022-10-24T01:48:24;6.22;;;1.88;;
20832;SDS011;56075;51.264;7.150;2022-10-24T01:50:57;8.02;;;1.77;;
20832;SDS011;56075;51.264;7.150;2022-10-24T01:53:32;7.15;;;1.88;;
20832;SDS011;56075;51.264;7.150;2022-10-24T01:56:04;10.15;;;1.58;;
20832;SDS011;56075;51.264;7.150;2022-10-24T01:58:36;8.90;;;2.00;;
20832;SDS011;56075;51.264;7.150;2022-10-24T02:01:09;6.88;;;1.90;;
20832;SDS011;56075;51.264;7.150;2022-10-24T02:03:44;6.68;;;1.58;;
20832;SDS011;56075;51.264;7.150;2022-10-24T02:06:18;4.18;;;1.60;;
20832;SDS011;56075;51.264;7.150;2022-10-24T02:08:55;10.05;;;1.85;;
20832;SDS011;56075;51.264;7.150;2022-10-24T02:11:30;7.72;;;1.63;;
20832;SDS011;56075;51.264;7.150;2022-10-24T02:16:43;6.47;;;1.80;;
20832;SDS011;56075;51.264;7.150;2022-10-24T02:19:14;12.40;;;2.10;;
20832;SDS011;56075;51.264;7.150;2022-10-24T02:21:51;6.53;;;1.90;;
20832;SDS011;56075;51.264;7.150;2022-10-24T02:27:44;5.05;;;1.50;;
20832;SDS011;56075;51.264;7.150;2022-10-24T02:30:20;7.88;;;1.73;;
20832;SDS011;56075;51.264;7.150;2022-10-24T02:32:55;8.68;;;1.63;;
20832;SDS011;56075;51.264;7.150;2022-10-24T02:35:29;7.75;;;1.42;;
20832;SDS011;56075;51.264;7.150;2022-10-24T02:38:07;4.38;;;1.50;;
20832;SDS011;56075;51.264;7.150;2022-10-24T02:40:49;4.90;;;1.50;;
20832;SDS011;56075;51.264;7.150;2022-10-24T02:43:22;6.57;;;1.83;;
20832;SDS011;56075;51.264;7.150;2022-10-24T02:45:55;9.07;;;1.65;;
20832;SDS011;56075;51.264;7.150;2022-10-24T02:48:29;9.23;;;1.80;;
20832;SDS011;56075;51.264;7.150;2022-10-24T02:51:04;6.25;;;1.52;;
20832;SDS011;56075;51.264;7.150;2022-10-24T02:53:36;6.28;;;1.80;;
20832;SDS011;56075;51.264;7.150;2022-10-24T02:56:09;5.55;;;1.50;;
20832;SDS011;56075;51.264;7.150;2022-10-24T02:58:40;6.43;;;1.63;;
20832;SDS011;56075;51.264;7.150;2022-10-24T03:01:11;6.18;;;1.58;;
20832;SDS011;56075;51.264;7.150;2022-10-24T03:03:42;10.88;;;2.00;;
20832;SDS011;56075;51.264;7.150;2022-10-24T03:06:13;5.15;;;1.73;;
20832;SDS011;56075;51.264;7.150;2022-10-24T03:08:45;5.78;;;1.50;;
20832;SDS011;56075;51.264;7.150;2022-10-24T03:11:16;13.45;;;1.77;;
20832;SDS011;56075;51.264;7.150;2022-10-24T03:13:47;5.93;;;1.48;;
20832;SDS011;56075;51.264;7.150;2022-10-24T03:16:18;8.82;;;1.75;;
20832;SDS011;56075;51.264;7.150;2022-10-24T03:18:49;5.32;;;1.60;;
20832;SDS011;56075;51.264;7.150;2022-10-24T03:21:21;10.27;;;1.85;;
20832;SDS011;56075;51.264;7.150;2022-10-24T03:23:53;9.18;;;1.63;;
20832;SDS011;56075;51.264;7.150;2022-10-24T03:26:24;8.10;;;1.77;;
20832;SDS011;56075;51.264;7.150;2022-10-24T03:28:55;5.78;;;1.35;;
20832;SDS011;56075;51.264;7.150;2022-10-24T03:31:26;7.78;;;2.08;;
20832;SDS011;56075;51.264;7.150;2022-10-24T03:33:57;4.25;;;1.30;;
20832;SDS011;56075;51.264;7.150;2022-10-24T03:36:29;7.60;;;1.67;;
20832;SDS011;56075;51.264;7.150;2022-10-24T03:39:00;7.32;;;1.67;;
20832;SDS011;56075;51.264;7.150;2022-10-24T03:41:32;6.88;;;1.70;;
20832;SDS011;56075;51.264;7.150;2022-10-24T03:44:03;6.30;;;1.77;;
20832;SDS011;56075;51.264;7.150;2022-10-24T03:46:34;7.38;;;1.42;;
20832;SDS011;56075;51.264;7.150;2022-10-24T03:49:05;7.72;;;1.80;;
20832;SDS011;56075;51.264;7.150;2022-10-24T03:51:36;7.63;;;1.52;;
20832;SDS011;56075;51.264;7.150;2022-10-24T03:54:07;8.60;;;1.70;;
20832;SDS011;56075;51.264;7.150;2022-10-24T03:56:39;7.15;;;1.60;;
20832;SDS011;56075;51.264;7.150;2022-10-24T03:59:11;8.57;;;1.80;;
20832;SDS011;56075;51.264;7.150;2022-10-24T04:01:42;4.28;;;1.50;;
20832;SDS011;56075;51.264;7.150;2022-10-24T04:04:13;4.85;;;1.50;;
20832;SDS011;56075;51.264;7.150;2022-10-24T04:06:44;5.75;;;1.50;;
20832;SDS011;56075;51.264;7.150;2022-10-24T04:09:15;4.75;;;1.50;;
20832;SDS011;56075;51.264;7.150;2022-10-24T04:11:47;4.60;;;1.50;;
20832;SDS011;56075;51.264;7.150;2022-10-24T04:14:19;9.63;;;1.23;;
20832;SDS011;56075;51.264;7.150;2022-10-24T04:16:50;6.40;;;1.55;;
20832;SDS011;56075;51.264;7.150;2022-10-24T04:19:21;7.57;;;1.67;;
20832;SDS011;56075;51.264;7.150;2022-10-24T04:21:53;10.50;;;1.50;;
20832;SDS011;56075;51.264;7.150;2022-10-24T04:24:24;6.50;;;1.45;;
20832;SDS011;56075;51.264;7.150;2022-10-24T04:26:56;10.20;;;1.50;;
20832;SDS011;56075;51.264;7.150;2022-10-24T04:29:27;6.35;;;1.60;;
20832;SDS011;56075;51.264;7.150;2022-10-24T04:31:58;12.43;;;1.98;;
20832;SDS011;56075;51.264;7.150;2022-10-24T04:34:29;6.38;;;1.50;;
20832;SDS011;56075;51.264;7.150;2022-10-24T04:37:05;5.57;;;1.40;;
20832;SDS011;56075;51.264;7.150;2022-10-24T04:39:36;7.50;;;1.42;;
20832;SDS011;56075;51.264;7.150;2022-10-24T04:42:07;6.82;;;1.50;;
20832;SDS011;56075;51.264;7.150;2022-10-24T04:44:38;9.02;;;1.80;;
20832;SDS011;56075;51.264;7.150;2022-10-24T04:47:09;4.60;;;1.40;;
20832;SDS011;56075;51.264;7.150;2022-10-24T04:49:41;5.75;;;1.30;;
20832;SDS011;56075;51.264;7.150;2022-10-24T04:52:12;7.60;;;1.60;;
20832;SDS011;56075;51.264;7.150;2022-10-24T04:54:43;5.07;;;1.30;;
20832;SDS011;56075;51.264;7.150;2022-10-24T04:57:14;5.78;;;1.45;;
20832;SDS011;56075;51.264;7.150;2022-10-24T04:59:45;3.42;;;1.40;;
20832;SDS011;56075;51.264;7.150;2022-10-24T05:02:16;9.98;;;1.40;;
20832;SDS011;56075;51.264;7.150;2022-10-24T05:04:47;6.40;;;1.50;;
20832;SDS011;56075;51.264;7.150;2022-10-24T05:07:18;8.00;;;1.45;;
20832;SDS011;56075;51.264;7.150;2022-10-24T05:09:51;4.80;;;1.30;;
20832;SDS011;56075;51.264;7.150;2022-10-24T05:12:22;6.53;;;1.30;;
20832;SDS011;56075;51.264;7.150;2022-10-24T05:14:53;6.60;;;1.52;;
20832;SDS011;56075;51.264;7.150;2022-10-24T05:17:24;7.88;;;1.42;;
20832;SDS011;56075;51.264;7.150;2022-10-24T05:19:55;2.85;;;1.10;;
20832;SDS011;56075;51.264;7.150;2022-10-24T05:22:26;5.55;;;1.40;;
20832;SDS011;56075;51.264;7.150;2022-10-24T05:24:57;5.95;;;1.48;;
20832;SDS011;56075;51.264;7.150;2022-10-24T05:27:30;5.07;;;1.60;;
20832;SDS011;56075;51.264;7.150;2022-10-24T05:30:02;4.90;;;1.20;;
20832;SDS011;56075;51.264;7.150;2022-10-24T05:32:33;2.95;;;1.40;;
20832;SDS011;56075;51.264;7.150;2022-10-24T05:35:05;9.20;;;1.35;;
20832;SDS011;56075;51.264;7.150;2022-10-24T05:37:37;6.20;;;1.08;;
20832;SDS011;56075;51.264;7.150;2022-10-24T05:40:09;2.72;;;1.10;;
20832;SDS011;56075;51.264;7.150;2022-10-24T05:42:41;3.92;;;1.50;;
20832;SDS011;56075;51.264;7.150;2022-10-24T05:45:12;4.30;;;1.23;;
20832;SDS011;56075;51.264;7.150;2022-10-24T05:47:43;7.25;;;1.25;;
20832;SDS011;56075;51.264;7.150;2022-10-24T05:50:14;2.78;;;1.13;;
20832;SDS011;56075;51.264;7.150;2022-10-24T05:52:45;4.65;;;1.05;;
20832;SDS011;56075;51.264;7.150;2022-10-24T05:55:17;4.05;;;1.10;;
20832;SDS011;56075;51.264;7.150;2022-10-24T05:57:48;6.72;;;1.23;;
20832;SDS011;56075;51.264;7.150;2022-10-24T06:00:19;4.68;;;1.25;;
20832;SDS011;56075;51.264;7.150;2022-10-24T06:02:50;4.15;;;1.10;;
20832;SDS011;56075;51.264;7.150;2022-10-24T06:05:21;3.78;;;1.00;;
20832;SDS011;56075;51.264;7.150;2022-10-24T06:07:52;3.53;;;1.15;;
20832;SDS011;56075;51.264;7.150;2022-10-24T06:10:24;4.35;;;1.10;;
20832;SDS011;56075;51.264;7.150;2022-10-24T06:12:55;5.68;;;1.13;;
20832;SDS011;56075;51.264;7.150;2022-10-24T06:15:26;5.78;;;1.20;;
20832;SDS011;56075;51.264;7.150;2022-10-24T06:17:57;5.85;;;1.00;;
20832;SDS011;56075;51.264;7.150;2022-10-24T06:20:29;5.45;;;1.10;;
20832;SDS011;56075;51.264;7.150;2022-10-24T06:23:00;3.53;;;0.90;;
20832;SDS011;56075;51.264;7.150;2022-10-24T06:25:32;6.18;;;1.10;;
20832;SDS011;56075;51.264;7.150;2022-10-24T06:28:03;2.75;;;1.00;;
20832;SDS011;56075;51.264;7.150;2022-10-24T06:30:34;5.25;;;1.35;;
20832;SDS011;56075;51.264;7.150;2022-10-24T06:33:05;6.05;;;1.10;;
20832;SDS011;56075;51.264;7.150;2022-10-24T06:35:37;5.07;;;1.00;;
20832;SDS011;56075;51.264;7.150;2022-10-24T06:38:08;5.28;;;1.20;;
20832;SDS011;56075;51.264;7.150;2022-10-24T06:40:39;4.93;;;1.30;;
20832;SDS011;56075;51.264;7.150;2022-10-24T06:43:12;6.18;;;1.10;;
20832;SDS011;56075;51.264;7.150;2022-10-24T06:45:43;5.25;;;1.30;;
20832;SDS011;56075;51.264;7.150;2022-10-24T06:48:15;3.47;;;1.00;;
20832;SDS011;56075;51.264;7.150;2022-10-24T06:50:46;5.47;;;1.48;;
20832;SDS011;56075;51.264;7.150;2022-10-24T06:53:18;5.47;;;0.90;;
20832;SDS011;56075;51.264;7.150;2022-10-24T06:55:49;3.05;;;0.80;;
20832;SDS011;56075;51.264;7.150;2022-10-24T06:58:20;6.28;;;1.30;;
20832;SDS011;56075;51.264;7.150;2022-10-24T07:00:51;5.65;;;1.10;;
20832;SDS011;56075;51.264;7.150;2022-10-24T07:03:23;6.30;;;1.10;;
20832;SDS011;56075;51.264;7.150;2022-10-24T07:05:54;3.97;;;1.05;;
20832;SDS011;56075;51.264;7.150;2022-10-24T07:08:25;7.57;;;1.00;;
20832;SDS011;56075;51.264;7.150;2022-10-24T07:10:56;3.25;;;0.90;;
20832;SDS011;56075;51.264;7.150;2022-10-24T07:13:27;6.75;;;1.00;;
20832;SDS011;56075;51.264;7.150;2022-10-24T07:15:59;7.10;;;1.10;;
20832;SDS011;56075;51.264;7.150;2022-10-24T07:18:32;6.32;;;1.17;;
20832;SDS011;56075;51.264;7.150;2022-10-24T07:21:04;4.72;;;1.25;;
20832;SDS011;56075;51.264;7.150;2022-10-24T07:23:37;7.50;;;1.10;;
20832;SDS011;56075;51.264;7.150;2022-10-24T07:26:09;8.40;;;1.42;;
20832;SDS011;56075;51.264;7.150;2022-10-24T07:28:43;5.22;;;1.13;;
20832;SDS011;56075;51.264;7.150;2022-10-24T07:31:16;6.20;;;1.30;;
20832;SDS011;56075;51.264;7.150;2022-10-24T07:33:47;7.45;;;1.20;;
20832;SDS011;56075;51.264;7.150;2022-10-24T07:36:21;5.43;;;1.10;;
20832;SDS011;56075;51.264;7.150;2022-10-24T07:38:54;5.53;;;1.20;;
20832;SDS011;56075;51.264;7.150;2022-10-24T07:41:28;3.42;;;1.10;;
20832;SDS011;56075;51.264;7.150;2022-10-24T07:44:00;5.50;;;0.98;;
20832;SDS011;56075;51.264;7.150;2022-10-24T07:46:34;4.75;;;1.13;;
20832;SDS011;56075;51.264;7.150;2022-10-24T07:49:06;7.85;;;1.30;;
20832;SDS011;56075;51.264;7.150;2022-10-24T07:51:39;7.05;;;2.53;;
20832;SDS011;56075;51.264;7.150;2022-10-24T07:54:10;4.90;;;1.58;;
20832;SDS011;56075;51.264;7.150;2022-10-24T07:56:42;3.63;;;1.25;;
20832;SDS011;56075;51.264;7.150;2022-10-24T07:59:13;6.30;;;1.42;;
20832;SDS011;56075;51.264;7.150;2022-10-24T08:01:44;6.30;;;1.10;;
20832;SDS011;56075;51.264;7.150;2022-10-24T08:04:15;4.25;;;1.42;;
20832;SDS011;56075;51.264;7.150;2022-10-24T08:06:46;4.68;;;1.02;;
20832;SDS011;56075;51.264;7.150;2022-10-24T08:09:17;4.65;;;1.30;;
20832;SDS011;56075;51.264;7.150;2022-10-24T08:11:50;4.82;;;1.10;;
20832;SDS011;56075;51.264;7.150;2022-10-24T08:14:21;5.47;;;1.88;;
20832;SDS011;56075;51.264;7.150;2022-10-24T08:16:52;9.18;;;1.40;;
20832;SDS011;56075;51.264;7.150;2022-10-24T08:19:23;5.70;;;1.48;;
20832;SDS011;56075;51.264;7.150;2022-10-24T08:21:54;7.22;;;1.30;;
20832;SDS011;56075;51.264;7.150;2022-10-24T08:24:26;3.22;;;1.40;;
20832;SDS011;56075;51.264;7.150;2022-10-24T08:26:58;6.47;;;1.20;;
20832;SDS011;56075;51.264;7.150;2022-10-24T08:29:30;5.10;;;1.13;;
20832;SDS011;56075;51.264;7.150;2022-10-24T08:32:02;8.27;;;1.90;;
20832;SDS011;56075;51.264;7.150;2022-10-24T08:34:33;8.30;;;1.60;;
20832;SDS011;56075;51.264;7.150;2022-10-24T08:37:05;7.50;;;1.15;;
20832;SDS011;56075;51.264;7.150;2022-10-24T08:39:37;7.68;;;1.30;;
20832;SDS011;56075;51.264;7.150;2022-10-24T08:42:12;12.57;;;1.38;;
20832;SDS011;56075;51.264;7.150;2022-10-24T08:44:45;6.28;;;0.95;;
20832;SDS011;56075;51.264;7.150;2022-10-24T08:53:15;6.90;;;1.05;;
20832;SDS011;56075;51.264;7.150;2022-10-24T08:55:55;7.57;;;1.00;;
20832;SDS011;56075;51.264;7.150;2022-10-24T08:58:31;4.60;;;1.00;;
20832;SDS011;56075;51.264;7.150;2022-10-24T09:01:07;3.67;;;1.00;;
20832;SDS011;56075;51.264;7.150;2022-10-24T09:03:59;6.05;;;1.10;;
20832;SDS011;56075;51.264;7.150;2022-10-24T09:06:36;4.90;;;1.33;;
20832;SDS011;56075;51.264;7.150;2022-10-24T09:11:43;5.95;;;1.10;;
20832;SDS011;56075;51.264;7.150;2022-10-24T09:14:22;6.35;;;1.38;;
20832;SDS011;56075;51.264;7.150;2022-10-24T09:16:59;5.05;;;1.17;;
20832;SDS011;56075;51.264;7.150;2022-10-24T09:19:54;2.97;;;0.95;;
20832;SDS011;56075;51.264;7.150;2022-10-24T09:22:27;5.07;;;1.10;;
20832;SDS011;56075;51.264;7.150;2022-10-24T09:25:04;5.05;;;1.20;;
20832;SDS011;56075;51.264;7.150;2022-10-24T09:27:41;5.30;;;1.10;;
20832;SDS011;56075;51.264;7.150;2022-10-24T09:30:14;7.45;;;0.95;;
20832;SDS011;56075;51.264;7.150;2022-10-24T09:32:48;8.88;;;1.10;;
20832;SDS011;56075;51.264;7.150;2022-10-24T09:35:20;3.42;;;0.90;;
20832;SDS011;56075;51.264;7.150;2022-10-24T09:37:53;4.95;;;1.02;;
20832;SDS011;56075;51.264;7.150;2022-10-24T09:40:30;7.20;;;1.00;;
20832;SDS011;56075;51.264;7.150;2022-10-24T09:48:50;3.78;;;1.02;;
20832;SDS011;56075;51.264;7.150;2022-10-24T09:57:29;9.48;;;1.25;;
20832;SDS011;56075;51.264;7.150;2022-10-24T09:59:57;5.45;;;1.10;;
20832;SDS011;56075;51.264;7.150;2022-10-24T10:02:30;4.18;;;0.82;;
20832;SDS011;56075;51.264;7.150;2022-10-24T10:07:45;9.38;;;1.08;;
20832;SDS011;56075;51.264;7.150;2022-10-24T10:10:28;8.18;;;1.17;;
20832;SDS011;56075;51.264;7.150;2022-10-24T10:15:46;6.30;;;0.93;;
20832;SDS011;56075;51.264;7.150;2022-10-24T10:23:52;7.35;;;1.17;;
20832;SDS011;56075;51.264;7.150;2022-10-24T10:26:28;5.05;;;1.00;;
20832;SDS011;56075;51.264;7.150;2022-10-24T10:31:51;5.60;;;1.02;;
20832;SDS011;56075;51.264;7.150;2022-10-24T10:42:56;7.18;;;1.20;;
20832;SDS011;56075;51.264;7.150;2022-10-24T10:48:51;6.70;;;1.77;;
20832;SDS011;56075;51.264;7.150;2022-10-24T10:51:47;3.95;;;1.10;;
20832;SDS011;56075;51.264;7.150;2022-10-24T10:57:26;7.93;;;1.08;;
20832;SDS011;56075;51.264;7.150;2022-10-24T11:00:24;6.28;;;1.02;;
20832;SDS011;56075;51.264;7.150;2022-10-24T11:09:20;5.90;;;1.00;;
20832;SDS011;56075;51.264;7.150;2022-10-24T11:12:06;9.10;;;1.10;;
20832;SDS011;56075;51.264;7.150;2022-10-24T11:14:42;8.52;;;1.08;;
20832;SDS011;56075;51.264;7.150;2022-10-24T11:17:19;3.67;;;1.00;;
20832;SDS011;56075;51.264;7.150;2022-10-24T11:20:00;9.00;;;1.10;;
20832;SDS011;56075;51.264;7.150;2022-10-24T11:22:41;5.00;;;1.15;;
20832;SDS011;56075;51.264;7.150;2022-10-24T11:25:30;7.47;;;1.10;;
20832;SDS011;56075;51.264;7.150;2022-10-24T11:28:30;8.55;;;1.13;;
20832;SDS011;56075;51.264;7.150;2022-10-24T11:31:22;5.88;;;1.10;;
20832;SDS011;56075;51.264;7.150;2022-10-24T11:37:26;10.43;;;1.50;;
20832;SDS011;56075;51.264;7.150;2022-10-24T11:40:09;6.40;;;1.00;;
20832;SDS011;56075;51.264;7.150;2022-10-24T11:42:50;11.05;;;1.33;;
20832;SDS011;56075;51.264;7.150;2022-10-24T11:48:34;8.90;;;1.17;;
20832;SDS011;56075;51.264;7.150;2022-10-24T11:51:20;5.20;;;1.10;;
20832;SDS011;56075;51.264;7.150;2022-10-24T11:54:04;7.40;;;1.00;;
20832;SDS011;56075;51.264;7.150;2022-10-24T11:56:44;5.43;;;0.90;;
20832;SDS011;56075;51.264;7.150;2022-10-24T11:59:21;12.02;;;1.20;;
20832;SDS011;56075;51.264;7.150;2022-10-24T12:02:17;11.98;;;1.45;;
20832;SDS011;56075;51.264;7.150;2022-10-24T12:08:17;7.95;;;1.10;;
20832;SDS011;56075;51.264;7.150;2022-10-24T12:11:06;8.85;;;1.30;;
20832;SDS011;56075;51.264;7.150;2022-10-24T12:13:51;9.13;;;1.15;;
20832;SDS011;56075;51.264;7.150;2022-10-24T12:19:25;6.07;;;1.02;;
20832;SDS011;56075;51.264;7.150;2022-10-24T12:21:59;10.32;;;1.48;;
20832;SDS011;56075;51.264;7.150;2022-10-24T12:24:34;7.20;;;1.13;;
20832;SDS011;56075;51.264;7.150;2022-10-24T12:30:16;7.22;;;1.50;;
20832;SDS011;56075;51.264;7.150;2022-10-24T12:32:51;8.70;;;1.20;;
20832;SDS011;56075;51.264;7.150;2022-10-24T12:37:57;8.27;;;0.90;;
20832;SDS011;56075;51.264;7.150;2022-10-24T12:43:36;5.60;;;1.10;;
20832;SDS011;56075;51.264;7.150;2022-10-24T12:51:31;8.07;;;0.98;;
20832;SDS011;56075;51.264;7.150;2022-10-24T12:54:12;6.03;;;0.90;;
20832;SDS011;56075;51.264;7.150;2022-10-24T13:16:21;9.30;;;1.23;;
20832;SDS011;56075;51.264;7.150;2022-10-24T13:19:13;5.25;;;1.10;;
20832;SDS011;56075;51.264;7.150;2022-10-24T13:21:47;6.60;;;1.65;;
20832;SDS011;56075;51.264;7.150;2022-10-24T13:24:27;9.20;;;1.60;;
20832;SDS011;56075;51.264;7.150;2022-10-24T13:37:25;6.88;;;1.20;;
20832;SDS011;56075;51.264;7.150;2022-10-24T13:40:12;6.72;;;0.90;;
20832;SDS011;56075;51.264;7.150;2022-10-24T13:43:00;6.80;;;1.30;;
20832;SDS011;56075;51.264;7.150;2022-10-24T13:45:44;6.80;;;1.35;;
20832;SDS011;56075;51.264;7.150;2022-10-24T13:48:23;5.82;;;1.10;;
20832;SDS011;56075;51.264;7.150;2022-10-24T13:56:43;4.47;;;1.27;;
20832;SDS011;56075;51.264;7.150;2022-10-24T13:59:35;7.80;;;1.30;;
20832;SDS011;56075;51.264;7.150;2022-10-24T14:02:13;7.40;;;1.25;;
20832;SDS011;56075;51.264;7.150;2022-10-24T14:04:50;7.78;;;1.33;;
20832;SDS011;56075;51.264;7.150;2022-10-24T14:07:24;9.00;;;1.52;;
20832;SDS011;56075;51.264;7.150;2022-10-24T14:09:59;7.90;;;1.40;;
20832;SDS011;56075;51.264;7.150;2022-10-24T14:12:34;6.57;;;1.02;;
20832;SDS011;56075;51.264;7.150;2022-10-24T14:15:16;6.30;;;1.38;;
20832;SDS011;56075;51.264;7.150;2022-10-24T14:18:32;7.00;;;1.23;;
20832;SDS011;56075;51.264;7.150;2022-10-24T14:20:49;6.78;;;1.13;;
20832;SDS011;56075;51.264;7.150;2022-10-24T14:26:05;6.20;;;1.40;;
20832;SDS011;56075;51.264;7.150;2022-10-24T14:28:45;4.75;;;0.80;;
20832;SDS011;56075;51.264;7.150;2022-10-24T14:31:52;8.18;;;1.13;;
20832;SDS011;56075;51.264;7.150;2022-10-24T14:34:23;10.98;;;1.63;;
20832;SDS011;56075;51.264;7.150;2022-10-24T14:36:57;3.90;;;1.30;;
20832;SDS011;56075;51.264;7.150;2022-10-24T14:39:32;7.22;;;1.83;;
20832;SDS011;56075;51.264;7.150;2022-10-24T14:42:04;4.72;;;1.13;;
20832;SDS011;56075;51.264;7.150;2022-10-24T14:44:44;7.60;;;1.05;;
20832;SDS011;56075;51.264;7.150;2022-10-24T14:47:21;5.53;;;0.90;;
20832;SDS011;56075;51.264;7.150;2022-10-24T14:49:55;9.55;;;1.10;;
20832;SDS011;56075;51.264;7.150;2022-10-24T14:55:13;5.50;;;1.00;;
20832;SDS011;56075;51.264;7.150;2022-10-24T14:57:50;4.82;;;1.00;;
20832;SDS011;56075;51.264;7.150;2022-10-24T15:00:24;11.65;;;1.25;;
20832;SDS011;56075;51.264;7.150;2022-10-24T15:02:57;7.75;;;0.95;;
20832;SDS011;56075;51.264;7.150;2022-10-24T15:05:32;5.72;;;1.00;;
20832;SDS011;56075;51.264;7.150;2022-10-24T15:10:42;7.07;;;1.30;;
20832;SDS011;56075;51.264;7.150;2022-10-24T15:13:20;8.82;;;1.40;;
20832;SDS011;56075;51.264;7.150;2022-10-24T15:15:55;9.27;;;1.45;;
20832;SDS011;56075;51.264;7.150;2022-10-24T15:18:29;7.82;;;1.17;;
20832;SDS011;56075;51.264;7.150;2022-10-24T15:21:22;7.53;;;1.15;;
20832;SDS011;56075;51.264;7.150;2022-10-24T15:23:57;3.45;;;0.90;;
20832;SDS011;56075;51.264;7.150;2022-10-24T15:31:33;6.80;;;1.25;;
20832;SDS011;56075;51.264;7.150;2022-10-24T15:34:07;6.18;;;1.35;;
20832;SDS011;56075;51.264;7.150;2022-10-24T15:36:43;8.75;;;1.52;;
20832;SDS011;56075;51.264;7.150;2022-10-24T15:39:20;4.75;;;1.08;;
20832;SDS011;56075;51.264;7.150;2022-10-24T15:41:53;5.00;;;1.27;;
20832;SDS011;56075;51.264;7.150;2022-10-24T15:44:26;7.25;;;1.60;;
20832;SDS011;56075;51.264;7.150;2022-10-24T15:46:58;5.45;;;1.25;;
20832;SDS011;56075;51.264;7.150;2022-10-24T15:49:35;8.43;;;1.38;;
20832;SDS011;56075;51.264;7.150;2022-10-24T15:52:06;5.60;;;1.50;;
20832;SDS011;56075;51.264;7.150;2022-10-24T15:54:42;6.32;;;1.35;;
20832;SDS011;56075;51.264;7.150;2022-10-24T15:57:17;6.85;;;1.60;;
20832;SDS011;56075;51.264;7.150;2022-10-24T15:59:49;10.75;;;1.40;;
20832;SDS011;56075;51.264;7.150;2022-10-24T16:02:21;8.80;;;1.25;;
20832;SDS011;56075;51.264;7.150;2022-10-24T16:04:53;7.90;;;1.52;;
20832;SDS011;56075;51.264;7.150;2022-10-24T16:07:24;7.72;;;1.02;;
20832;SDS011;56075;51.264;7.150;2022-10-24T16:09:55;5.75;;;1.00;;
20832;SDS011;56075;51.264;7.150;2022-10-24T16:12:27;6.80;;;1.08;;
20832;SDS011;56075;51.264;7.150;2022-10-24T16:14:58;9.15;;;1.50;;
20832;SDS011;56075;51.264;7.150;2022-10-24T16:17:29;10.40;;;1.10;;
20832;SDS011;56075;51.264;7.150;2022-10-24T16:20:00;6.65;;;1.60;;
20832;SDS011;56075;51.264;7.150;2022-10-24T16:22:33;5.60;;;1.05;;
20832;SDS011;56075;51.264;7.150;2022-10-24T16:25:04;4.70;;;1.10;;
20832;SDS011;56075;51.264;7.150;2022-10-24T16:27:36;5.70;;;1.35;;
20832;SDS011;56075;51.264;7.150;2022-10-24T16:30:08;7.07;;;1.30;;
20832;SDS011;56075;51.264;7.150;2022-10-24T16:32:40;6.22;;;1.10;;
20832;SDS011;56075;51.264;7.150;2022-10-24T16:35:16;5.47;;;1.10;;
20832;SDS011;56075;51.264;7.150;2022-10-24T16:37:50;6.18;;;1.40;;
20832;SDS011;56075;51.264;7.150;2022-10-24T16:40:22;7.20;;;0.90;;
20832;SDS011;56075;51.264;7.150;2022-10-24T16:42:55;5.32;;;1.20;;
20832;SDS011;56075;51.264;7.150;2022-10-24T16:45:28;10.95;;;1.48;;
20832;SDS011;56075;51.264;7.150;2022-10-24T16:47:59;6.28;;;1.50;;
20832;SDS011;56075;51.264;7.150;2022-10-24T16:50:32;6.70;;;1.38;;
20832;SDS011;56075;51.264;7.150;2022-10-24T16:53:03;4.07;;;1.20;;
20832;SDS011;56075;51.264;7.150;2022-10-24T16:55:36;8.60;;;1.40;;
20832;SDS011;56075;51.264;7.150;2022-10-24T16:58:07;8.57;;;1.63;;
20832;SDS011;56075;51.264;7.150;2022-10-24T17:00:38;6.60;;;1.40;;
20832;SDS011;56075;51.264;7.150;2022-10-24T17:03:10;5.72;;;1.40;;
20832;SDS011;56075;51.264;7.150;2022-10-24T17:05:41;8.20;;;1.70;;
20832;SDS011;56075;51.264;7.150;2022-10-24T17:08:15;6.75;;;1.38;;
20832;SDS011;56075;51.264;7.150;2022-10-24T17:10:47;5.82;;;1.15;;
20832;SDS011;56075;51.264;7.150;2022-10-24T17:13:18;7.18;;;1.40;;
20832;SDS011;56075;51.264;7.150;2022-10-24T17:15:49;9.32;;;2.58;;
20832;SDS011;56075;51.264;7.150;2022-10-24T17:18:20;8.80;;;2.60;;
20832;SDS011;56075;51.264;7.150;2022-10-24T17:20:53;10.13;;;1.85;;
20832;SDS011;56075;51.264;7.150;2022-10-24T17:23:29;8.98;;;2.10;;
20832;SDS011;56075;51.264;7.150;2022-10-24T17:26:01;12.55;;;2.00;;
20832;SDS011;56075;51.264;7.150;2022-10-24T17:28:32;6.55;;;1.30;;
20832;SDS011;56075;51.264;7.150;2022-10-24T17:31:03;5.97;;;1.58;;
20832;SDS011;56075;51.264;7.150;2022-10-24T17:33:35;6.93;;;1.45;;
20832;SDS011;56075;51.264;7.150;2022-10-24T17:36:13;6.53;;;1.80;;
20832;SDS011;56075;51.264;7.150;2022-10-24T17:39:02;5.93;;;2.00;;
20832;SDS011;56075;51.264;7.150;2022-10-24T17:41:38;9.40;;;2.08;;
20832;SDS011;56075;51.264;7.150;2022-10-24T17:44:15;7.50;;;2.13;;
20832;SDS011;56075;51.264;7.150;2022-10-24T17:46:47;7.32;;;2.25;;
20832;SDS011;56075;51.264;7.150;2022-10-24T17:49:18;12.10;;;2.60;;
20832;SDS011;56075;51.264;7.150;2022-10-24T17:51:50;12.45;;;2.70;;
20832;SDS011;56075;51.264;7.150;2022-10-24T17:54:21;9.48;;;2.10;;
20832;SDS011;56075;51.264;7.150;2022-10-24T17:56:52;12.23;;;2.13;;
20832;SDS011;56075;51.264;7.150;2022-10-24T17:59:23;8.07;;;2.03;;
20832;SDS011;56075;51.264;7.150;2022-10-24T18:01:55;13.77;;;2.90;;